sensor_id;sensor_type;location;lat;lon;timestamp;noise_LAeq;noise_LA_min;noise_LA_max;noise_LA01;noise_LA95
58303;Laerm;44109;52.398;7.024;2023-04-24T00:01:32;50.49;36.73;61.79;;
58303;Laerm;44109;52.398;7.024;2023-04-24T00:04:00;47.70;35.24;58.17;;
58303;Laerm;44109;52.398;7.024;2023-04-24T00:06:30;47.32;36.83;57.96;;
58303;Laerm;44109;52.398;7.024;2023-04-24T00:08:59;47.00;35.26;56.95;;
58303;Laerm;44109;52.398;7.024;2023-04-24T00:11:29;48.31;34.34;69.03;;
58303;Laerm;44109;52.398;7.024;2023-04-24T00:13:57;49.40;39.94;61.01;;
58303;Laerm;44109;52.398;7.024;2023-04-24T00:16:25;47.08;37.02;57.50;;
58303;Laerm;44109;52.398;7.024;2023-04-24T00:18:53;52.13;37.28;66.81;;
58303;Laerm;44109;52.398;7.024;2023-04-24T00:21:21;51.16;39.61;63.14;;
58303;Laerm;44109;52.398;7.024;2023-04-24T00:23:52;51.43;40.48;64.97;;
58303;Laerm;44109;52.398;7.024;2023-04-24T00:26:20;55.38;38.68;83.74;;
58303;Laerm;44109;52.398;7.024;2023-04-24T00:28:49;51.46;39.10;63.28;;
58303;Laerm;44109;52.398;7.024;2023-04-24T00:31:17;49.13;37.59;57.83;;
58303;Laerm;44109;52.398;7.024;2023-04-24T00:33:45;53.07;40.60;63.82;;
58303;Laerm;44109;52.398;7.024;2023-04-24T00:36:13;49.74;39.69;62.66;;
58303;Laerm;44109;52.398;7.024;2023-04-24T00:38:40;49.16;38.67;57.89;;
58303;Laerm;44109;52.398;7.024;2023-04-24T00:41:08;49.44;36.81;61.05;;
58303;Laerm;44109;52.398;7.024;2023-04-24T00:43:36;47.19;35.29;57.81;;
58303;Laerm;44109;52.398;7.024;2023-04-24T00:46:05;47.40;34.32;57.69;;
58303;Laerm;44109;52.398;7.024;2023-04-24T00:48:33;48.21;35.81;64.58;;
58303;Laerm;44109;52.398;7.024;2023-04-24T00:51:01;47.09;34.39;57.65;;
58303;Laerm;44109;52.398;7.024;2023-04-24T00:53:29;50.88;39.00;66.73;;
58303;Laerm;44109;52.398;7.024;2023-04-24T00:55:57;49.09;36.08;57.68;;
58303;Laerm;44109;52.398;7.024;2023-04-24T00:58:25;47.31;35.32;57.69;;
58303;Laerm;44109;52.398;7.024;2023-04-24T01:00:54;47.78;35.75;57.75;;
58303;Laerm;44109;52.398;7.024;2023-04-24T01:03:29;51.37;37.88;72.56;;
58303;Laerm;44109;52.398;7.024;2023-04-24T01:05:57;46.61;34.09;57.04;;
58303;Laerm;44109;52.398;7.024;2023-04-24T01:08:28;48.40;35.07;60.69;;
58303;Laerm;44109;52.398;7.024;2023-04-24T01:10:57;47.25;34.18;59.77;;
58303;Laerm;44109;52.398;7.024;2023-04-24T01:13:25;46.84;33.46;57.59;;
58303;Laerm;44109;52.398;7.024;2023-04-24T01:15:53;48.05;34.26;57.29;;
58303;Laerm;44109;52.398;7.024;2023-04-24T01:18:21;51.73;37.53;64.99;;
58303;Laerm;44109;52.398;7.024;2023-04-24T01:20:53;49.36;37.66;62.93;;
58303;Laerm;44109;52.398;7.024;2023-04-24T01:23:23;49.26;37.57;61.23;;
58303;Laerm;44109;52.398;7.024;2023-04-24T01:25:51;48.44;36.91;59.77;;
58303;Laerm;44109;52.398;7.024;2023-04-24T01:28:19;48.90;33.99;61.21;;
58303;Laerm;44109;52.398;7.024;2023-04-24T01:30:47;47.60;33.70;57.61;;
58303;Laerm;44109;52.398;7.024;2023-04-24T01:33:15;48.71;35.63;57.47;;
58303;Laerm;44109;52.398;7.024;2023-04-24T01:35:43;47.04;35.08;59.54;;
58303;Laerm;44109;52.398;7.024;2023-04-24T01:38:11;47.86;34.48;58.18;;
58303;Laerm;44109;52.398;7.024;2023-04-24T01:40:41;48.52;36.45;57.55;;
58303;Laerm;44109;52.398;7.024;2023-04-24T01:43:08;49.76;39.88;61.70;;
58303;Laerm;44109;52.398;7.024;2023-04-24T01:45:36;46.98;34.57;57.42;;
58303;Laerm;44109;52.398;7.024;2023-04-24T01:48:04;48.00;33.63;57.58;;
58303;Laerm;44109;52.398;7.024;2023-04-24T01:50:32;47.07;33.75;57.43;;
58303;Laerm;44109;52.398;7.024;2023-04-24T01:53:00;46.68;32.78;57.37;;
58303;Laerm;44109;52.398;7.024;2023-04-24T01:55:27;47.28;35.07;57.33;;
58303;Laerm;44109;52.398;7.024;2023-04-24T01:57:56;47.01;34.53;57.51;;
58303;Laerm;44109;52.398;7.024;2023-04-24T02:00:25;46.88;33.56;57.49;;
58303;Laerm;44109;52.398;7.024;2023-04-24T02:02:52;46.93;34.22;57.51;;
58303;Laerm;44109;52.398;7.024;2023-04-24T02:05:20;47.72;34.11;57.01;;
58303;Laerm;44109;52.398;7.024;2023-04-24T02:07:48;47.22;34.39;57.52;;
58303;Laerm;44109;52.398;7.024;2023-04-24T02:10:16;48.08;35.22;57.51;;
58303;Laerm;44109;52.398;7.024;2023-04-24T02:12:44;47.79;35.24;58.60;;
58303;Laerm;44109;52.398;7.024;2023-04-24T02:15:13;47.45;33.51;58.46;;
58303;Laerm;44109;52.398;7.024;2023-04-24T02:17:41;47.63;32.45;57.90;;
58303;Laerm;44109;52.398;7.024;2023-04-24T02:20:09;46.76;32.89;57.55;;
58303;Laerm;44109;52.398;7.024;2023-04-24T02:22:37;47.79;34.95;57.98;;
58303;Laerm;44109;52.398;7.024;2023-04-24T02:25:05;47.67;33.19;57.46;;
58303;Laerm;44109;52.398;7.024;2023-04-24T02:27:34;46.79;32.48;59.85;;
58303;Laerm;44109;52.398;7.024;2023-04-24T02:30:02;46.53;32.46;57.57;;
58303;Laerm;44109;52.398;7.024;2023-04-24T02:32:31;46.79;33.75;57.60;;
58303;Laerm;44109;52.398;7.024;2023-04-24T02:35:00;47.73;32.95;57.55;;
58303;Laerm;44109;52.398;7.024;2023-04-24T02:37:27;48.51;34.25;57.82;;
58303;Laerm;44109;52.398;7.024;2023-04-24T02:39:55;46.39;32.72;57.50;;
58303;Laerm;44109;52.398;7.024;2023-04-24T02:42:22;46.30;33.32;57.39;;
58303;Laerm;44109;52.398;7.024;2023-04-24T02:44:50;47.84;35.06;57.48;;
58303;Laerm;44109;52.398;7.024;2023-04-24T02:47:18;46.80;34.98;57.62;;
58303;Laerm;44109;52.398;7.024;2023-04-24T02:49:47;48.67;34.05;60.44;;
58303;Laerm;44109;52.398;7.024;2023-04-24T02:52:14;47.61;35.52;57.85;;
58303;Laerm;44109;52.398;7.024;2023-04-24T02:54:43;47.68;33.25;57.56;;
58303;Laerm;44109;52.398;7.024;2023-04-24T02:57:11;48.30;36.31;57.56;;
58303;Laerm;44109;52.398;7.024;2023-04-24T02:59:38;48.11;38.08;57.56;;
58303;Laerm;44109;52.398;7.024;2023-04-24T03:02:06;47.26;34.36;57.31;;
58303;Laerm;44109;52.398;7.024;2023-04-24T03:04:34;49.92;39.35;60.16;;
58303;Laerm;44109;52.398;7.024;2023-04-24T03:07:03;48.64;36.62;64.20;;
58303;Laerm;44109;52.398;7.024;2023-04-24T03:09:30;51.17;38.10;61.57;;
58303;Laerm;44109;52.398;7.024;2023-04-24T03:11:58;48.69;37.33;64.46;;
58303;Laerm;44109;52.398;7.024;2023-04-24T03:14:26;48.29;36.44;57.34;;
58303;Laerm;44109;52.398;7.024;2023-04-24T03:16:57;48.36;35.79;62.97;;
58303;Laerm;44109;52.398;7.024;2023-04-24T03:19:25;50.21;38.01;65.59;;
58303;Laerm;44109;52.398;7.024;2023-04-24T03:21:52;53.11;39.68;71.15;;
58303;Laerm;44109;52.398;7.024;2023-04-24T03:24:21;57.74;38.16;74.36;;
58303;Laerm;44109;52.398;7.024;2023-04-24T03:26:49;65.25;38.47;101.30;;
58303;Laerm;44109;52.398;7.024;2023-04-24T03:29:17;53.96;41.82;77.58;;
58303;Laerm;44109;52.398;7.024;2023-04-24T03:31:44;52.88;38.10;74.04;;
58303;Laerm;44109;52.398;7.024;2023-04-24T03:34:12;54.29;36.96;74.53;;
58303;Laerm;44109;52.398;7.024;2023-04-24T03:36:40;54.14;37.89;74.86;;
58303;Laerm;44109;52.398;7.024;2023-04-24T03:39:07;55.23;37.38;78.37;;
58303;Laerm;44109;52.398;7.024;2023-04-24T03:41:36;57.11;38.74;72.98;;
58303;Laerm;44109;52.398;7.024;2023-04-24T03:44:04;56.81;38.04;71.63;;
58303;Laerm;44109;52.398;7.024;2023-04-24T03:46:32;55.59;37.20;71.91;;
58303;Laerm;44109;52.398;7.024;2023-04-24T03:48:59;61.22;39.07;94.65;;
58303;Laerm;44109;52.398;7.024;2023-04-24T03:51:27;58.65;38.23;74.68;;
58303;Laerm;44109;52.398;7.024;2023-04-24T03:53:56;55.20;39.02;72.97;;
58303;Laerm;44109;52.398;7.024;2023-04-24T03:56:24;58.72;38.57;78.01;;
58303;Laerm;44109;52.398;7.024;2023-04-24T03:58:53;57.31;41.64;77.90;;
58303;Laerm;44109;52.398;7.024;2023-04-24T04:01:21;56.61;41.81;70.72;;
58303;Laerm;44109;52.398;7.024;2023-04-24T04:03:49;59.84;42.70;76.04;;
58303;Laerm;44109;52.398;7.024;2023-04-24T04:06:16;58.84;40.12;77.58;;
58303;Laerm;44109;52.398;7.024;2023-04-24T04:08:45;55.22;38.14;66.90;;
58303;Laerm;44109;52.398;7.024;2023-04-24T04:11:13;56.39;38.51;67.35;;
58303;Laerm;44109;52.398;7.024;2023-04-24T04:13:41;59.00;38.92;78.13;;
58303;Laerm;44109;52.398;7.024;2023-04-24T04:16:10;58.93;37.78;78.39;;
58303;Laerm;44109;52.398;7.024;2023-04-24T04:18:38;53.61;40.24;65.42;;
58303;Laerm;44109;52.398;7.024;2023-04-24T04:21:06;54.72;41.01;66.91;;
58303;Laerm;44109;52.398;7.024;2023-04-24T04:23:34;63.30;40.16;86.00;;
58303;Laerm;44109;52.398;7.024;2023-04-24T04:26:02;65.99;36.83;85.68;;
58303;Laerm;44109;52.398;7.024;2023-04-24T04:28:31;56.95;40.01;74.82;;
58303;Laerm;44109;52.398;7.024;2023-04-24T04:30:59;54.43;40.06;68.73;;
58303;Laerm;44109;52.398;7.024;2023-04-24T04:33:28;54.35;40.41;69.39;;
58303;Laerm;44109;52.398;7.024;2023-04-24T04:35:56;53.63;40.36;68.64;;
58303;Laerm;44109;52.398;7.024;2023-04-24T04:38:23;53.22;41.13;76.47;;
58303;Laerm;44109;52.398;7.024;2023-04-24T04:40:53;55.09;39.38;72.53;;
58303;Laerm;44109;52.398;7.024;2023-04-24T04:43:22;54.13;39.01;71.87;;
58303;Laerm;44109;52.398;7.024;2023-04-24T04:45:53;53.86;40.41;72.71;;
58303;Laerm;44109;52.398;7.024;2023-04-24T04:48:20;50.87;39.95;65.87;;
58303;Laerm;44109;52.398;7.024;2023-04-24T04:50:49;52.00;40.32;77.00;;
58303;Laerm;44109;52.398;7.024;2023-04-24T04:53:17;53.03;40.92;65.46;;
58303;Laerm;44109;52.398;7.024;2023-04-24T04:55:45;50.08;39.07;67.28;;
58303;Laerm;44109;52.398;7.024;2023-04-24T04:58:14;50.87;41.13;67.78;;
58303;Laerm;44109;52.398;7.024;2023-04-24T05:00:41;49.63;39.78;64.63;;
58303;Laerm;44109;52.398;7.024;2023-04-24T05:03:09;51.43;39.72;66.31;;
58303;Laerm;44109;52.398;7.024;2023-04-24T05:05:37;52.17;40.96;71.33;;
58303;Laerm;44109;52.398;7.024;2023-04-24T05:08:08;50.41;40.31;67.65;;
58303;Laerm;44109;52.398;7.024;2023-04-24T05:10:35;50.56;41.74;61.23;;
58303;Laerm;44109;52.398;7.024;2023-04-24T05:13:03;51.12;41.01;60.64;;
58303;Laerm;44109;52.398;7.024;2023-04-24T05:15:31;51.65;40.27;79.28;;
58303;Laerm;44109;52.398;7.024;2023-04-24T05:17:58;51.86;41.59;62.14;;
58303;Laerm;44109;52.398;7.024;2023-04-24T05:20:26;55.41;41.56;81.48;;
58303;Laerm;44109;52.398;7.024;2023-04-24T05:22:54;54.96;39.22;75.48;;
58303;Laerm;44109;52.398;7.024;2023-04-24T05:25:23;50.65;42.25;61.26;;
58303;Laerm;44109;52.398;7.024;2023-04-24T05:27:51;51.99;43.15;64.00;;
58303;Laerm;44109;52.398;7.024;2023-04-24T05:30:20;50.57;41.25;62.28;;
58303;Laerm;44109;52.398;7.024;2023-04-24T05:32:47;52.10;43.04;65.70;;
58303;Laerm;44109;52.398;7.024;2023-04-24T05:35:15;53.11;39.95;73.81;;
58303;Laerm;44109;52.398;7.024;2023-04-24T05:37:42;51.34;41.66;65.65;;
58303;Laerm;44109;52.398;7.024;2023-04-24T05:40:11;51.27;41.14;68.85;;
58303;Laerm;44109;52.398;7.024;2023-04-24T05:42:40;53.01;40.20;71.21;;
58303;Laerm;44109;52.398;7.024;2023-04-24T05:45:08;53.58;43.96;66.80;;
58303;Laerm;44109;52.398;7.024;2023-04-24T05:47:41;52.08;42.22;67.34;;
58303;Laerm;44109;52.398;7.024;2023-04-24T05:50:09;49.74;40.15;63.33;;
58303;Laerm;44109;52.398;7.024;2023-04-24T05:52:37;51.92;41.78;66.36;;
58303;Laerm;44109;52.398;7.024;2023-04-24T05:55:05;52.51;42.46;65.00;;
58303;Laerm;44109;52.398;7.024;2023-04-24T05:57:34;52.86;42.72;63.45;;
58303;Laerm;44109;52.398;7.024;2023-04-24T06:00:04;55.95;42.49;79.64;;
58303;Laerm;44109;52.398;7.024;2023-04-24T06:02:32;50.43;42.40;66.62;;
58303;Laerm;44109;52.398;7.024;2023-04-24T06:04:59;51.59;41.72;61.14;;
58303;Laerm;44109;52.398;7.024;2023-04-24T06:07:27;49.39;38.50;63.27;;
58303;Laerm;44109;52.398;7.024;2023-04-24T06:09:55;49.67;39.66;60.84;;
58303;Laerm;44109;52.398;7.024;2023-04-24T06:12:23;49.82;40.81;60.11;;
58303;Laerm;44109;52.398;7.024;2023-04-24T06:14:50;50.45;40.32;68.65;;
58303;Laerm;44109;52.398;7.024;2023-04-24T06:17:19;56.12;39.17;71.94;;
58303;Laerm;44109;52.398;7.024;2023-04-24T06:19:47;58.88;42.87;74.04;;
58303;Laerm;44109;52.398;7.024;2023-04-24T06:22:14;50.80;41.44;72.29;;
58303;Laerm;44109;52.398;7.024;2023-04-24T06:24:42;51.09;43.06;64.94;;
58303;Laerm;44109;52.398;7.024;2023-04-24T06:27:10;49.38;39.66;64.67;;
58303;Laerm;44109;52.398;7.024;2023-04-24T06:29:37;51.82;43.37;67.17;;
58303;Laerm;44109;52.398;7.024;2023-04-24T06:32:05;52.69;42.90;74.32;;
58303;Laerm;44109;52.398;7.024;2023-04-24T06:34:35;53.13;40.06;73.43;;
58303;Laerm;44109;52.398;7.024;2023-04-24T06:37:03;51.87;41.69;71.00;;
58303;Laerm;44109;52.398;7.024;2023-04-24T06:39:30;52.24;41.68;68.26;;
58303;Laerm;44109;52.398;7.024;2023-04-24T06:41:58;52.23;42.63;64.74;;
58303;Laerm;44109;52.398;7.024;2023-04-24T06:44:26;55.84;40.88;78.82;;
58303;Laerm;44109;52.398;7.024;2023-04-24T06:46:54;52.18;40.19;71.66;;
58303;Laerm;44109;52.398;7.024;2023-04-24T06:49:22;52.30;41.27;71.97;;
58303;Laerm;44109;52.398;7.024;2023-04-24T06:51:51;53.15;43.15;74.36;;
58303;Laerm;44109;52.398;7.024;2023-04-24T06:54:18;56.40;43.13;82.53;;
58303;Laerm;44109;52.398;7.024;2023-04-24T06:56:46;53.68;42.43;75.88;;
58303;Laerm;44109;52.398;7.024;2023-04-24T06:59:14;57.85;43.29;86.60;;
58303;Laerm;44109;52.398;7.024;2023-04-24T07:01:42;60.19;43.58;89.48;;
58303;Laerm;44109;52.398;7.024;2023-04-24T07:04:10;67.08;46.47;98.23;;
58303;Laerm;44109;52.398;7.024;2023-04-24T07:06:40;70.61;48.36;100.90;;
58303;Laerm;44109;52.398;7.024;2023-04-24T07:09:09;68.61;49.44;96.89;;
58303;Laerm;44109;52.398;7.024;2023-04-24T07:11:37;67.20;49.62;92.51;;
58303;Laerm;44109;52.398;7.024;2023-04-24T07:14:06;69.24;50.19;101.14;;
58303;Laerm;44109;52.398;7.024;2023-04-24T07:16:35;63.48;47.56;89.25;;
58303;Laerm;44109;52.398;7.024;2023-04-24T07:19:02;61.33;45.81;85.73;;
58303;Laerm;44109;52.398;7.024;2023-04-24T07:21:30;63.05;47.12;85.93;;
58303;Laerm;44109;52.398;7.024;2023-04-24T07:23:58;62.69;47.26;87.64;;
58303;Laerm;44109;52.398;7.024;2023-04-24T07:26:29;59.53;44.08;89.44;;
58303;Laerm;44109;52.398;7.024;2023-04-24T07:28:57;63.18;43.98;92.98;;
58303;Laerm;44109;52.398;7.024;2023-04-24T07:31:25;70.90;50.49;100.40;;
58303;Laerm;44109;52.398;7.024;2023-04-24T07:33:52;63.61;47.62;89.51;;
58303;Laerm;44109;52.398;7.024;2023-04-24T07:36:20;66.61;45.09;101.99;;
58303;Laerm;44109;52.398;7.024;2023-04-24T07:38:48;63.94;46.67;96.94;;
58303;Laerm;44109;52.398;7.024;2023-04-24T07:41:16;69.82;50.44;97.90;;
58303;Laerm;44109;52.398;7.024;2023-04-24T07:43:45;67.09;48.47;93.24;;
58303;Laerm;44109;52.398;7.024;2023-04-24T07:46:13;61.74;46.44;90.61;;
58303;Laerm;44109;52.398;7.024;2023-04-24T07:48:40;61.98;47.20;85.50;;
58303;Laerm;44109;52.398;7.024;2023-04-24T07:51:08;63.05;47.09;86.02;;
58303;Laerm;44109;52.398;7.024;2023-04-24T07:53:38;64.61;48.15;89.33;;
58303;Laerm;44109;52.398;7.024;2023-04-24T07:56:07;69.02;50.22;98.03;;
58303;Laerm;44109;52.398;7.024;2023-04-24T07:58:35;66.43;50.53;90.98;;
58303;Laerm;44109;52.398;7.024;2023-04-24T08:01:04;68.27;49.51;99.60;;
58303;Laerm;44109;52.398;7.024;2023-04-24T08:03:32;68.27;50.19;100.77;;
58303;Laerm;44109;52.398;7.024;2023-04-24T08:06:00;60.73;47.51;80.55;;
58303;Laerm;44109;52.398;7.024;2023-04-24T08:08:28;60.89;44.66;90.70;;
58303;Laerm;44109;52.398;7.024;2023-04-24T08:10:56;60.42;44.11;86.82;;
58303;Laerm;44109;52.398;7.024;2023-04-24T08:13:23;63.67;46.87;87.77;;
58303;Laerm;44109;52.398;7.024;2023-04-24T08:15:51;65.28;45.93;87.74;;
58303;Laerm;44109;52.398;7.024;2023-04-24T08:18:20;64.01;44.44;86.60;;
58303;Laerm;44109;52.398;7.024;2023-04-24T08:20:48;65.82;47.61;88.42;;
58303;Laerm;44109;52.398;7.024;2023-04-24T08:23:15;68.72;50.25;90.87;;
58303;Laerm;44109;52.398;7.024;2023-04-24T08:25:43;65.58;47.46;91.54;;
58303;Laerm;44109;52.398;7.024;2023-04-24T08:28:11;66.93;47.57;91.39;;
58303;Laerm;44109;52.398;7.024;2023-04-24T08:30:38;65.57;46.17;99.58;;
58303;Laerm;44109;52.398;7.024;2023-04-24T08:33:06;59.28;43.83;86.02;;
58303;Laerm;44109;52.398;7.024;2023-04-24T08:35:35;57.76;42.89;83.32;;
58303;Laerm;44109;52.398;7.024;2023-04-24T08:38:04;57.33;42.75;89.72;;
58303;Laerm;44109;52.398;7.024;2023-04-24T08:40:34;57.24;42.80;80.53;;
58303;Laerm;44109;52.398;7.024;2023-04-24T08:43:03;58.56;44.61;86.08;;
58303;Laerm;44109;52.398;7.024;2023-04-24T08:45:32;60.83;44.05;86.28;;
58303;Laerm;44109;52.398;7.024;2023-04-24T08:48:01;65.37;45.25;93.40;;
58303;Laerm;44109;52.398;7.024;2023-04-24T08:50:29;63.43;46.37;92.17;;
58303;Laerm;44109;52.398;7.024;2023-04-24T08:53:01;57.35;43.42;82.68;;
58303;Laerm;44109;52.398;7.024;2023-04-24T08:55:30;60.91;44.09;93.81;;
58303;Laerm;44109;52.398;7.024;2023-04-24T08:57:59;55.20;44.40;79.27;;
58303;Laerm;44109;52.398;7.024;2023-04-24T09:00:29;58.32;44.62;85.43;;
58303;Laerm;44109;52.398;7.024;2023-04-24T09:02:57;62.31;45.40;88.68;;
58303;Laerm;44109;52.398;7.024;2023-04-24T09:05:27;67.53;48.10;88.23;;
58303;Laerm;44109;52.398;7.024;2023-04-24T09:07:56;67.00;48.21;90.53;;
58303;Laerm;44109;52.398;7.024;2023-04-24T09:10:25;67.59;49.25;89.20;;
58303;Laerm;44109;52.398;7.024;2023-04-24T09:12:58;71.97;50.00;98.36;;
58303;Laerm;44109;52.398;7.024;2023-04-24T09:15:29;63.05;46.93;85.57;;
58303;Laerm;44109;52.398;7.024;2023-04-24T09:17:57;62.60;46.23;89.61;;
58303;Laerm;44109;52.398;7.024;2023-04-24T09:20:25;70.47;49.68;97.19;;
58303;Laerm;44109;52.398;7.024;2023-04-24T09:22:54;69.44;49.71;95.89;;
58303;Laerm;44109;52.398;7.024;2023-04-24T09:25:31;69.20;49.59;91.94;;
58303;Laerm;44109;52.398;7.024;2023-04-24T09:28:01;67.62;47.68;94.73;;
58303;Laerm;44109;52.398;7.024;2023-04-24T09:30:29;71.38;49.06;99.63;;
58303;Laerm;44109;52.398;7.024;2023-04-24T09:33:10;74.90;53.02;102.92;;
58303;Laerm;44109;52.398;7.024;2023-04-24T09:35:41;73.06;52.71;99.04;;
58303;Laerm;44109;52.398;7.024;2023-04-24T09:38:10;72.43;53.82;98.16;;
58303;Laerm;44109;52.398;7.024;2023-04-24T09:40:39;70.69;49.02;103.16;;
58303;Laerm;44109;52.398;7.024;2023-04-24T09:43:11;60.96;44.80;84.77;;
58303;Laerm;44109;52.398;7.024;2023-04-24T09:45:39;57.61;44.82;82.98;;
58303;Laerm;44109;52.398;7.024;2023-04-24T09:48:09;55.98;44.23;79.00;;
58303;Laerm;44109;52.398;7.024;2023-04-24T09:50:37;61.44;45.06;87.91;;
58303;Laerm;44109;52.398;7.024;2023-04-24T09:53:06;65.02;48.59;94.27;;
58303;Laerm;44109;52.398;7.024;2023-04-24T09:55:44;65.52;46.46;92.64;;
58303;Laerm;44109;52.398;7.024;2023-04-24T09:58:14;66.47;47.60;97.94;;
58303;Laerm;44109;52.398;7.024;2023-04-24T10:00:42;60.36;44.58;87.51;;
58303;Laerm;44109;52.398;7.024;2023-04-24T10:03:10;58.93;44.58;84.28;;
58303;Laerm;44109;52.398;7.024;2023-04-24T10:05:38;63.98;45.59;88.23;;
58303;Laerm;44109;52.398;7.024;2023-04-24T10:08:07;62.69;47.06;85.49;;
58303;Laerm;44109;52.398;7.024;2023-04-24T10:10:41;64.48;47.05;85.77;;
58303;Laerm;44109;52.398;7.024;2023-04-24T10:13:11;64.68;47.20;87.69;;
58303;Laerm;44109;52.398;7.024;2023-04-24T10:15:41;60.71;45.34;85.46;;
58303;Laerm;44109;52.398;7.024;2023-04-24T10:18:10;60.37;45.92;83.51;;
58303;Laerm;44109;52.398;7.024;2023-04-24T10:20:39;60.62;45.57;88.25;;
58303;Laerm;44109;52.398;7.024;2023-04-24T10:23:08;60.10;43.40;86.47;;
58303;Laerm;44109;52.398;7.024;2023-04-24T10:25:36;56.89;44.23;79.22;;
58303;Laerm;44109;52.398;7.024;2023-04-24T10:28:05;61.22;44.97;86.27;;
58303;Laerm;44109;52.398;7.024;2023-04-24T10:30:34;62.28;45.34;91.36;;
58303;Laerm;44109;52.398;7.024;2023-04-24T10:33:03;59.69;44.49;84.56;;
58303;Laerm;44109;52.398;7.024;2023-04-24T10:35:34;58.10;43.47;84.39;;
58303;Laerm;44109;52.398;7.024;2023-04-24T10:38:08;55.90;43.08;77.83;;
58303;Laerm;44109;52.398;7.024;2023-04-24T10:40:37;57.33;42.54;77.26;;
58303;Laerm;44109;52.398;7.024;2023-04-24T10:43:08;56.30;44.20;81.05;;
58303;Laerm;44109;52.398;7.024;2023-04-24T10:45:38;57.82;43.62;82.00;;
58303;Laerm;44109;52.398;7.024;2023-04-24T10:48:08;58.77;45.77;83.18;;
58303;Laerm;44109;52.398;7.024;2023-04-24T10:50:45;59.98;44.74;81.21;;
58303;Laerm;44109;52.398;7.024;2023-04-24T10:53:16;59.85;44.64;85.37;;
58303;Laerm;44109;52.398;7.024;2023-04-24T10:55:47;59.55;44.25;81.59;;
58303;Laerm;44109;52.398;7.024;2023-04-24T10:58:21;58.69;43.54;85.89;;
58303;Laerm;44109;52.398;7.024;2023-04-24T11:00:57;60.19;42.90;93.51;;
58303;Laerm;44109;52.398;7.024;2023-04-24T11:03:28;57.58;43.12;80.05;;
58303;Laerm;44109;52.398;7.024;2023-04-24T11:05:59;57.46;43.06;83.40;;
58303;Laerm;44109;52.398;7.024;2023-04-24T11:08:37;61.97;48.88;82.65;;
58303;Laerm;44109;52.398;7.024;2023-04-24T11:11:10;62.16;47.06;85.04;;
58303;Laerm;44109;52.398;7.024;2023-04-24T11:14:06;60.95;43.03;84.49;;
58303;Laerm;44109;52.398;7.024;2023-04-24T11:16:45;56.51;44.91;77.33;;
58303;Laerm;44109;52.398;7.024;2023-04-24T11:19:22;57.33;44.66;78.04;;
58303;Laerm;44109;52.398;7.024;2023-04-24T11:21:58;56.97;43.04;77.85;;
58303;Laerm;44109;52.398;7.024;2023-04-24T11:24:30;58.44;43.94;81.64;;
58303;Laerm;44109;52.398;7.024;2023-04-24T11:27:01;55.31;42.81;75.85;;
58303;Laerm;44109;52.398;7.024;2023-04-24T11:29:45;58.32;43.63;81.22;;
58303;Laerm;44109;52.398;7.024;2023-04-24T11:32:27;54.96;41.93;77.41;;
58303;Laerm;44109;52.398;7.024;2023-04-24T11:34:58;50.41;40.84;69.30;;
58303;Laerm;44109;52.398;7.024;2023-04-24T11:37:33;49.44;40.14;68.94;;
58303;Laerm;44109;52.398;7.024;2023-04-24T11:40:01;51.43;41.34;65.67;;
58303;Laerm;44109;52.398;7.024;2023-04-24T11:42:34;51.87;42.88;68.13;;
58303;Laerm;44109;52.398;7.024;2023-04-24T11:45:08;51.44;43.77;69.57;;
58303;Laerm;44109;52.398;7.024;2023-04-24T11:47:37;50.03;42.86;61.54;;
58303;Laerm;44109;52.398;7.024;2023-04-24T11:50:09;49.81;42.24;66.76;;
58303;Laerm;44109;52.398;7.024;2023-04-24T11:52:38;50.02;41.75;65.53;;
58303;Laerm;44109;52.398;7.024;2023-04-24T11:55:12;49.92;40.20;67.02;;
58303;Laerm;44109;52.398;7.024;2023-04-24T11:57:53;51.20;39.19;70.37;;
58303;Laerm;44109;52.398;7.024;2023-04-24T12:00:26;50.63;41.35;68.61;;
58303;Laerm;44109;52.398;7.024;2023-04-24T12:03:05;49.64;38.39;63.40;;
58303;Laerm;44109;52.398;7.024;2023-04-24T12:05:33;61.14;40.85;84.55;;
58303;Laerm;44109;52.398;7.024;2023-04-24T12:08:01;65.81;44.42;89.14;;
58303;Laerm;44109;52.398;7.024;2023-04-24T12:10:32;50.48;42.73;62.46;;
58303;Laerm;44109;52.398;7.024;2023-04-24T12:13:00;50.39;39.81;67.74;;
58303;Laerm;44109;52.398;7.024;2023-04-24T12:15:30;53.46;42.84;72.57;;
58303;Laerm;44109;52.398;7.024;2023-04-24T12:17:57;51.24;43.02;67.48;;
58303;Laerm;44109;52.398;7.024;2023-04-24T12:20:27;52.33;41.77;70.86;;
58303;Laerm;44109;52.398;7.024;2023-04-24T12:22:57;51.94;41.27;67.02;;
58303;Laerm;44109;52.398;7.024;2023-04-24T12:25:27;51.96;41.30;69.05;;
58303;Laerm;44109;52.398;7.024;2023-04-24T12:28:08;51.01;39.35;65.74;;
58303;Laerm;44109;52.398;7.024;2023-04-24T12:30:42;53.66;39.86;72.26;;
58303;Laerm;44109;52.398;7.024;2023-04-24T12:33:11;53.75;42.42;75.52;;
58303;Laerm;44109;52.398;7.024;2023-04-24T12:35:40;49.76;41.17;63.10;;
58303;Laerm;44109;52.398;7.024;2023-04-24T12:38:10;51.01;42.04;64.50;;
58303;Laerm;44109;52.398;7.024;2023-04-24T12:40:40;50.01;42.10;63.63;;
58303;Laerm;44109;52.398;7.024;2023-04-24T12:43:14;50.97;42.26;62.62;;
58303;Laerm;44109;52.398;7.024;2023-04-24T12:45:44;51.81;41.21;64.49;;
58303;Laerm;44109;52.398;7.024;2023-04-24T12:48:12;52.05;43.21;66.43;;
58303;Laerm;44109;52.398;7.024;2023-04-24T12:50:41;52.46;41.85;67.65;;
58303;Laerm;44109;52.398;7.024;2023-04-24T12:53:09;51.44;43.10;63.93;;
58303;Laerm;44109;52.398;7.024;2023-04-24T12:55:37;55.42;42.85;84.82;;
58303;Laerm;44109;52.398;7.024;2023-04-24T12:58:05;51.38;41.92;69.74;;
58303;Laerm;44109;52.398;7.024;2023-04-24T13:00:33;52.39;39.46;68.61;;
58303;Laerm;44109;52.398;7.024;2023-04-24T13:03:02;54.23;46.13;69.59;;
58303;Laerm;44109;52.398;7.024;2023-04-24T13:05:30;50.78;43.34;60.89;;
58303;Laerm;44109;52.398;7.024;2023-04-24T13:07:58;50.88;41.25;65.16;;
58303;Laerm;44109;52.398;7.024;2023-04-24T13:10:26;51.39;43.57;61.77;;
58303;Laerm;44109;52.398;7.024;2023-04-24T13:12:53;50.23;41.77;62.08;;
58303;Laerm;44109;52.398;7.024;2023-04-24T13:15:21;49.93;41.90;65.69;;
58303;Laerm;44109;52.398;7.024;2023-04-24T13:17:50;62.43;40.76;85.35;;
58303;Laerm;44109;52.398;7.024;2023-04-24T13:20:19;52.09;41.06;74.20;;
58303;Laerm;44109;52.398;7.024;2023-04-24T13:22:47;55.33;41.82;77.64;;
58303;Laerm;44109;52.398;7.024;2023-04-24T13:25:15;49.79;39.70;65.21;;
58303;Laerm;44109;52.398;7.024;2023-04-24T13:27:44;50.49;41.77;67.99;;
58303;Laerm;44109;52.398;7.024;2023-04-24T13:30:12;50.31;40.78;68.52;;
58303;Laerm;44109;52.398;7.024;2023-04-24T13:32:40;50.32;40.48;68.03;;
58303;Laerm;44109;52.398;7.024;2023-04-24T13:35:08;49.49;40.39;64.90;;
58303;Laerm;44109;52.398;7.024;2023-04-24T13:37:37;49.41;39.81;60.27;;
58303;Laerm;44109;52.398;7.024;2023-04-24T13:40:06;48.86;39.49;66.52;;
58303;Laerm;44109;52.398;7.024;2023-04-24T13:42:34;48.85;40.50;64.70;;
58303;Laerm;44109;52.398;7.024;2023-04-24T13:45:02;48.67;40.34;61.03;;
58303;Laerm;44109;52.398;7.024;2023-04-24T13:47:30;49.48;40.97;65.37;;
58303;Laerm;44109;52.398;7.024;2023-04-24T13:49:58;48.90;39.73;61.40;;
58303;Laerm;44109;52.398;7.024;2023-04-24T13:52:26;52.91;41.40;71.72;;
58303;Laerm;44109;52.398;7.024;2023-04-24T13:54:55;54.88;43.73;73.44;;